Time;durP1;ratioP1;P1;durP2;ratioP2;P2;SDS_P1;SDS_P2;PMS_P1;PMS_P2;Temp;Humidity;BMP_temperature;BMP_pressure;BME280_temperature;BME280_humidity;BME280_pressure;Samples;Min_cycle;Max_cycle;Signal;HPM_P1;HPM_P2
2022/03/19 00:00:44;;;;;;;54.80;24.80;;;3.80;99.90;;;;;;4973791;28;20035;-90
2022/03/19 00:03:10;;;;;;;55.72;30.02;;;3.90;99.90;;;;;;4974449;28;20169;-90
2022/03/19 00:05:36;;;;;;;61.38;31.13;;;3.90;99.90;;;;;;4974299;28;20129;-88
2022/03/19 00:08:02;;;;;;;57.35;27.80;;;3.70;99.90;;;;;;4973091;28;20491;-90
2022/03/19 00:10:28;;;;;;;62.35;32.17;;;3.50;99.90;;;;;;4974057;28;20141;-89
2022/03/19 00:12:54;;;;;;;67.07;33.70;;;3.30;99.90;;;;;;4971951;28;20468;-89
2022/03/19 00:15:19;;;;;;;54.80;29.50;;;3.20;99.90;;;;;;4973961;28;20042;-90
2022/03/19 00:17:46;;;;;;;71.28;36.53;;;3.30;99.90;;;;;;4974139;28;20027;-89
2022/03/19 00:20:12;;;;;;;71.20;35.88;;;3.20;99.90;;;;;;4972603;28;20492;-88
2022/03/19 00:22:38;;;;;;;78.22;37.97;;;3.20;99.90;;;;;;4973704;28;20050;-89
2022/03/19 00:25:05;;;;;;;71.88;33.08;;;3.20;99.90;;;;;;4973946;28;20058;-88
2022/03/19 00:27:30;;;;;;;68.55;32.03;;;3.10;99.90;;;;;;4971804;28;20031;-89
2022/03/19 00:29:56;;;;;;;83.40;38.25;;;3.30;99.90;;;;;;4981065;28;20203;-90
2022/03/19 00:32:22;;;;;;;80.63;35.63;;;3.20;99.90;;;;;;4972898;28;20039;-88
2022/03/19 00:34:48;;;;;;;65.00;29.92;;;3.10;99.90;;;;;;4973438;28;20049;-88
2022/03/19 00:37:13;;;;;;;78.75;37.15;;;3.00;99.90;;;;;;4973605;28;20565;-90
2022/03/19 00:39:39;;;;;;;88.20;38.40;;;3.00;99.90;;;;;;4973581;28;20050;-89
2022/03/19 00:42:05;;;;;;;72.35;31.25;;;3.10;99.90;;;;;;4962746;28;20031;-88
2022/03/19 00:44:30;;;;;;;78.25;33.33;;;3.10;99.90;;;;;;4964018;28;20071;-89
2022/03/19 00:46:56;;;;;;;83.55;40.78;;;3.20;99.90;;;;;;4973653;28;20118;-88
2022/03/19 00:49:21;;;;;;;89.05;38.05;;;3.10;99.90;;;;;;4973671;28;20027;-88
2022/03/19 00:51:47;;;;;;;74.43;34.45;;;3.10;99.90;;;;;;4972585;28;20062;-88
2022/03/19 00:54:15;;;;;;;82.32;37.30;;;3.10;99.90;;;;;;4972819;28;20035;-90
2022/03/19 00:56:42;;;;;;;89.15;42.10;;;3.00;99.90;;;;;;4973309;28;20023;-89
2022/03/19 00:59:08;;;;;;;74.80;34.17;;;3.20;99.90;;;;;;4971780;28;20082;-90
2022/03/19 01:01:35;;;;;;;73.93;36.60;;;3.20;99.90;;;;;;4964564;28;20114;-90
2022/03/19 01:04:01;;;;;;;82.57;38.97;;;3.20;99.90;;;;;;4971815;28;20600;-89
2022/03/19 01:06:26;;;;;;;80.38;40.42;;;3.20;99.90;;;;;;4973298;28;20110;-88
2022/03/19 01:08:52;;;;;;;87.13;41.47;;;3.20;99.90;;;;;;4972888;28;20458;-88
2022/03/19 01:11:23;;;;;;;83.55;41.28;;;3.20;99.90;;;;;;4971657;28;20102;-88
2022/03/19 01:13:50;;;;;;;80.80;38.35;;;3.20;99.90;;;;;;4973449;28;20081;-89
2022/03/19 01:16:18;;;;;;;91.13;42.28;;;3.10;99.90;;;;;;4971827;28;20434;-89
2022/03/19 01:18:44;;;;;;;91.90;45.67;;;3.10;99.90;;;;;;4972759;28;20078;-85
2022/03/19 01:21:10;;;;;;;88.25;39.40;;;2.90;99.90;;;;;;4972811;28;20039;-88
2022/03/19 01:23:35;;;;;;;88.10;39.25;;;3.00;99.90;;;;;;4972606;28;20025;-89
2022/03/19 01:26:01;;;;;;;155.25;50.67;;;2.80;99.90;;;;;;4971949;28;20058;-88
2022/03/19 01:28:27;;;;;;;68.32;32.03;;;2.90;99.90;;;;;;4972581;28;20066;-90
2022/03/19 01:30:52;;;;;;;88.43;41.25;;;2.90;99.90;;;;;;4959730;28;20686;-87
2022/03/19 01:33:18;;;;;;;83.82;37.63;;;3.00;99.90;;;;;;4959696;28;20391;-90
2022/03/19 01:35:44;;;;;;;87.40;43.42;;;2.80;99.90;;;;;;4970953;28;20031;-90
2022/03/19 01:38:09;;;;;;;86.32;42.20;;;3.00;99.90;;;;;;4971109;28;20027;-89
2022/03/19 01:40:35;;;;;;;78.25;34.78;;;3.00;99.90;;;;;;4972035;28;20475;-87
2022/03/19 01:43:01;;;;;;;86.80;36.55;;;2.80;99.90;;;;;;4971932;28;20039;-87
2022/03/19 01:45:27;;;;;;;88.82;38.63;;;2.80;99.90;;;;;;4972099;28;20112;-91
2022/03/19 01:47:54;;;;;;;99.63;44.75;;;2.70;99.90;;;;;;4971947;28;20035;-89
2022/03/19 01:50:24;;;;;;;107.15;49.28;;;2.80;99.90;;;;;;4961405;28;20493;-89
2022/03/19 01:52:50;;;;;;;98.38;44.65;;;2.70;99.90;;;;;;4972200;28;20058;-88
2022/03/19 01:55:19;;;;;;;93.95;42.38;;;2.70;99.90;;;;;;4971866;28;20026;-87
2022/03/19 01:57:46;;;;;;;93.82;45.17;;;2.60;99.90;;;;;;4971898;28;20118;-89
2022/03/19 02:00:16;;;;;;;98.50;45.25;;;2.80;99.90;;;;;;4984985;28;20034;-88
2022/03/19 02:02:47;;;;;;;98.35;45.47;;;2.80;99.90;;;;;;4972034;28;20232;-89
2022/03/19 02:05:22;;;;;;;91.13;40.92;;;2.70;99.90;;;;;;4971518;28;20078;-90
2022/03/19 02:07:49;;;;;;;94.32;40.72;;;2.60;99.90;;;;;;4970858;28;20030;-89
2022/03/19 02:10:17;;;;;;;90.28;38.30;;;2.60;99.90;;;;;;4971190;28;20023;-90
2022/03/19 02:12:44;;;;;;;90.97;43.40;;;2.60;99.90;;;;;;4971468;28;20023;-90
2022/03/19 02:15:11;;;;;;;95.85;40.83;;;2.60;99.90;;;;;;4971732;28;20062;-88
2022/03/19 02:17:38;;;;;;;90.60;40.08;;;2.60;99.90;;;;;;4971485;28;20051;-89
2022/03/19 02:20:05;;;;;;;94.13;40.35;;;2.60;99.90;;;;;;4971169;28;20079;-90
2022/03/19 02:22:31;;;;;;;91.55;36.42;;;2.50;99.90;;;;;;4971173;28;20367;-88
2022/03/19 02:27:42;;;;;;;80.07;33.83;;;2.60;99.90;;;;;;4971311;28;20030;-91
2022/03/19 02:30:11;;;;;;;74.97;35.35;;;2.40;99.90;;;;;;4965141;28;20031;-90
2022/03/19 02:32:40;;;;;;;78.93;33.90;;;2.30;99.90;;;;;;4971272;28;20104;-91
2022/03/19 02:35:07;;;;;;;66.78;29.13;;;2.30;99.90;;;;;;4971871;28;20042;-91
2022/03/19 02:37:42;;;;;;;84.57;38.85;;;2.40;99.90;;;;;;4957481;28;20034;-91
2022/03/19 02:40:17;;;;;;;94.97;43.60;;;2.30;99.90;;;;;;4951866;28;20114;-89
2022/03/19 02:42:50;;;;;;;77.10;37.65;;;2.30;99.90;;;;;;4952517;28;20027;-87
2022/03/19 02:45:16;;;;;;;61.55;31.17;;;2.20;99.90;;;;;;4956524;28;20549;-90
2022/03/19 02:47:57;;;;;;;81.43;36.78;;;2.30;99.90;;;;;;4971154;28;20081;-88
2022/03/19 02:50:24;;;;;;;;;;;2.20;99.90;;;;;;4972326;28;20031;-87
2022/03/19 02:52:50;;;;;;;83.68;36.75;;;2.10;99.90;;;;;;4971299;28;19941;-88
2022/03/19 02:55:16;;;;;;;82.55;38.28;;;2.10;99.90;;;;;;4970048;28;20026;-90
2022/03/19 02:57:41;;;;;;;79.90;35.75;;;2.10;99.90;;;;;;4970456;28;20038;-90
2022/03/19 03:00:08;;;;;;;70.97;30.75;;;2.20;99.90;;;;;;4970706;28;20092;-88
2022/03/19 03:02:33;;;;;;;72.60;35.15;;;2.20;99.90;;;;;;4970640;28;20125;-90
2022/03/19 03:04:59;;;;;;;86.72;38.25;;;2.10;99.90;;;;;;4971122;28;20062;-90
2022/03/19 03:07:24;;;;;;;74.68;34.30;;;2.10;99.90;;;;;;4963918;28;20055;-88
2022/03/19 03:09:50;;;;;;;75.15;31.73;;;2.10;99.90;;;;;;4971428;28;20448;-88
2022/03/19 03:12:16;;;;;;;79.82;33.33;;;2.10;99.90;;;;;;4970119;28;20034;-88
2022/03/19 03:14:41;;;;;;;69.03;34.88;;;2.00;99.90;;;;;;4972840;28;20129;-88
2022/03/19 03:17:07;;;;;;;70.10;33.45;;;1.80;99.90;;;;;;4975241;28;20525;-89
2022/03/19 03:19:33;;;;;;;82.38;35.58;;;1.90;99.90;;;;;;4975355;28;20027;-89
2022/03/19 03:21:58;;;;;;;82.80;36.25;;;1.90;99.90;;;;;;4975229;28;20027;-89
2022/03/19 03:24:25;;;;;;;76.45;36.42;;;1.90;99.90;;;;;;4973165;28;20056;-90
2022/03/19 03:26:51;;;;;;;63.10;30.90;;;1.90;99.90;;;;;;4962020;28;20434;-90
2022/03/19 03:29:17;;;;;;;75.50;33.92;;;1.90;99.90;;;;;;4975030;28;20037;-88
2022/03/19 03:31:44;;;;;;;70.60;33.80;;;1.90;99.90;;;;;;4974268;28;20668;-89
2022/03/19 03:34:09;;;;;;;67.97;33.20;;;1.90;99.90;;;;;;4975116;28;20069;-87
2022/03/19 03:36:35;;;;;;;67.57;30.00;;;1.60;99.90;;;;;;4955660;28;20059;-88
2022/03/19 03:39:01;;;;;;;58.25;29.45;;;1.60;99.90;;;;;;4968468;28;20102;-87
2022/03/19 03:41:26;;;;;;;71.85;34.67;;;1.70;99.90;;;;;;4975203;28;20027;-86
2022/03/19 03:43:52;;;;;;;64.25;29.40;;;1.80;99.90;;;;;;4974807;28;20394;-88
2022/03/19 03:46:18;;;;;;;62.17;30.33;;;1.80;99.90;;;;;;4973012;28;20042;-89
2022/03/19 03:48:43;;;;;;;53.47;23.20;;;1.70;99.90;;;;;;4974078;28;20035;-87
2022/03/19 03:51:12;;;;;;;67.20;32.10;;;1.70;99.90;;;;;;4974355;28;20027;-88
2022/03/19 03:53:38;;;;;;;61.55;29.33;;;1.70;99.90;;;;;;4974139;28;20385;-90
2022/03/19 03:56:04;;;;;;;68.18;34.92;;;1.70;99.90;;;;;;4974309;28;20141;-90
2022/03/19 03:58:31;;;;;;;57.42;28.42;;;1.50;99.90;;;;;;4973590;28;20114;-86
2022/03/19 04:00:57;;;;;;;53.33;24.85;;;1.40;99.90;;;;;;4974019;28;20038;-89
2022/03/19 04:03:23;;;;;;;47.92;22.70;;;1.40;99.90;;;;;;4973593;28;20027;-91
2022/03/19 04:05:49;;;;;;;65.15;31.77;;;1.50;99.90;;;;;;4974306;28;20043;-90
2022/03/19 04:08:15;;;;;;;56.40;25.95;;;1.50;99.90;;;;;;4974317;28;20023;-87
2022/03/19 04:10:41;;;;;;;59.58;28.92;;;1.60;99.90;;;;;;4974094;28;20042;-87
2022/03/19 04:13:07;;;;;;;49.38;23.23;;;1.60;99.90;;;;;;4956096;28;20446;-90
2022/03/19 04:15:32;;;;;;;58.38;27.33;;;1.50;99.90;;;;;;4973676;28;20027;-87
2022/03/19 04:17:58;;;;;;;56.78;27.48;;;1.50;99.90;;;;;;4974280;28;20019;-88
2022/03/19 04:20:25;;;;;;;55.92;26.23;;;1.30;99.90;;;;;;4972807;28;20031;-89
2022/03/19 04:22:50;;;;;;;56.95;28.42;;;1.10;99.90;;;;;;4972953;28;20031;-88
2022/03/19 04:25:19;;;;;;;54.03;28.02;;;1.20;99.90;;;;;;4973295;28;20458;-89
2022/03/19 04:27:47;;;;;;;54.60;26.45;;;1.20;99.90;;;;;;4973063;28;20066;-89
2022/03/19 04:30:14;;;;;;;57.58;27.33;;;1.20;99.90;;;;;;4974116;28;20096;-90
2022/03/19 04:32:45;;;;;;;62.30;30.30;;;1.20;99.90;;;;;;4973174;28;20066;-88
2022/03/19 04:38:00;;;;;;;66.45;27.88;;;1.10;99.90;;;;;;4973731;28;20069;-87
2022/03/19 04:40:26;;;;;;;56.25;26.35;;;1.10;99.90;;;;;;4973326;28;20026;-87
2022/03/19 04:42:51;;;;;;;55.50;23.98;;;1.10;99.90;;;;;;4972272;28;20027;-88
2022/03/19 04:45:17;;;;;;;55.92;26.27;;;1.10;99.90;;;;;;4973728;28;20039;-90
2022/03/19 04:47:43;;;;;;;52.90;26.23;;;1.10;99.90;;;;;;4973787;28;20033;-89
2022/03/19 04:50:09;;;;;;;64.15;25.15;;;1.00;99.90;;;;;;4972557;28;20091;-91
2022/03/19 04:52:35;;;;;;;49.42;24.67;;;1.10;99.90;;;;;;4973679;28;20061;-90
2022/03/19 04:55:01;;;;;;;55.47;27.58;;;1.10;99.90;;;;;;4971756;28;20081;-90
2022/03/19 04:57:30;;;;;;;57.95;25.90;;;1.20;99.90;;;;;;4973298;28;20027;-88
2022/03/19 04:59:58;;;;;;;59.95;28.38;;;1.10;99.90;;;;;;4988229;28;20030;-89
2022/03/19 05:02:24;;;;;;;54.63;27.38;;;1.10;99.90;;;;;;4971859;28;20031;-90
2022/03/19 05:04:54;;;;;;;59.13;27.33;;;1.00;99.90;;;;;;4972576;28;20130;-90
2022/03/19 05:07:21;;;;;;;57.20;25.42;;;1.00;99.90;;;;;;4972896;28;20031;-88
2022/03/19 05:12:33;;;;;;;58.20;29.50;;;1.00;99.90;;;;;;4971088;28;20390;-88
2022/03/19 05:14:59;;;;;;;59.00;28.65;;;1.00;99.90;;;;;;4970792;28;20596;-90
2022/03/19 05:17:25;;;;;;;57.67;27.13;;;0.80;99.90;;;;;;4952527;29;20062;-89
2022/03/19 05:19:52;;;;;;;61.80;26.13;;;0.70;99.90;;;;;;4957557;28;20125;-87
2022/03/19 05:22:18;;;;;;;54.47;25.00;;;0.70;99.90;;;;;;4968897;28;20034;-87
2022/03/19 05:24:43;;;;;;;49.10;24.92;;;0.70;99.90;;;;;;4961432;28;20479;-87
2022/03/19 05:27:09;;;;;;;53.10;25.85;;;0.80;99.90;;;;;;4972146;28;20039;-90
2022/03/19 05:29:35;;;;;;;53.65;24.85;;;0.90;99.90;;;;;;4972738;28;20034;-88
2022/03/19 05:32:01;;;;;;;60.63;28.75;;;0.80;99.90;;;;;;4972608;28;20043;-88
2022/03/19 05:34:30;;;;;;;53.50;27.17;;;0.90;99.90;;;;;;4987233;28;20033;-89
2022/03/19 05:37:00;;;;;;;47.85;22.73;;;0.80;99.90;;;;;;4971176;28;20034;-87
2022/03/19 05:39:27;;;;;;;56.80;26.75;;;1.00;99.90;;;;;;4972448;28;20034;-89
2022/03/19 05:41:53;;;;;;;54.63;26.83;;;1.00;99.90;;;;;;4972988;28;20043;-91
2022/03/19 05:44:19;;;;;;;55.42;25.67;;;0.80;99.90;;;;;;4972231;28;20022;-89
2022/03/19 05:46:44;;;;;;;44.13;21.25;;;0.70;99.90;;;;;;4972274;28;20482;-86
2022/03/19 05:49:11;;;;;;;47.83;24.35;;;0.90;99.90;;;;;;4987093;28;20027;-87
2022/03/19 05:51:36;;;;;;;46.95;22.48;;;1.00;99.90;;;;;;4972175;28;20049;-89
2022/03/19 05:54:02;;;;;;;52.78;23.08;;;1.10;99.90;;;;;;4972392;28;20113;-88
2022/03/19 05:56:29;;;;;;;51.47;24.77;;;1.00;99.90;;;;;;4972272;28;20097;-90
2022/03/19 05:58:55;;;;;;;53.67;25.27;;;1.00;99.90;;;;;;4972063;28;20034;-89
2022/03/19 06:01:26;;;;;;;49.75;23.92;;;1.00;99.90;;;;;;4970490;28;20494;-91
2022/03/19 06:03:52;;;;;;;50.30;24.55;;;1.10;99.90;;;;;;4956550;28;20372;-88
2022/03/19 06:06:18;;;;;;;47.40;23.40;;;1.00;99.90;;;;;;4972221;28;20050;-90
2022/03/19 06:08:43;;;;;;;55.00;25.10;;;1.00;99.90;;;;;;4972069;28;20390;-89
2022/03/19 06:11:09;;;;;;;54.92;24.77;;;0.90;99.90;;;;;;4970905;28;20386;-89
2022/03/19 06:13:35;;;;;;;39.25;22.00;;;1.00;99.90;;;;;;4966526;28;20031;-90
2022/03/19 06:16:00;;;;;;;47.63;24.52;;;1.10;99.90;;;;;;4972006;28;20094;-88
2022/03/19 06:18:26;;;;;;;50.17;25.52;;;1.20;99.90;;;;;;4971998;28;20553;-90
2022/03/19 06:20:52;;;;;;;44.42;22.20;;;1.20;99.90;;;;;;4971625;28;20093;-87
2022/03/19 06:23:17;;;;;;;50.95;24.35;;;1.30;99.90;;;;;;4955434;28;20039;-89
2022/03/19 06:25:43;;;;;;;49.95;23.73;;;1.30;99.90;;;;;;4963152;28;20046;-89
2022/03/19 06:28:09;;;;;;;46.13;25.30;;;1.30;99.90;;;;;;4971918;28;20391;-90
2022/03/19 06:30:37;;;;;;;47.55;23.73;;;1.20;99.90;;;;;;4970824;28;20117;-90
2022/03/19 06:33:06;;;;;;;48.78;23.15;;;1.20;99.90;;;;;;4970766;28;20078;-89
2022/03/19 06:38:18;;;;;;;40.92;19.92;;;1.30;99.90;;;;;;4972193;28;20061;-89
2022/03/19 06:40:43;;;;;;;43.90;22.13;;;1.50;99.90;;;;;;4972034;28;20035;-88
2022/03/19 06:43:09;;;;;;;46.22;20.10;;;1.50;99.90;;;;;;4953504;28;20470;-87
2022/03/19 06:45:35;;;;;;;51.20;20.85;;;1.60;99.90;;;;;;4969865;28;20069;-90
2022/03/19 06:48:01;;;;;;;35.55;20.08;;;1.60;99.90;;;;;;4971653;28;20463;-90
2022/03/19 06:50:27;;;;;;;52.30;25.23;;;1.70;99.90;;;;;;4974206;28;20027;-89
2022/03/19 06:52:52;;;;;;;31.42;16.00;;;1.70;99.90;;;;;;4975331;28;20090;-90
2022/03/19 06:55:18;;;;;;;39.97;21.90;;;1.70;99.90;;;;;;4975062;28;20031;-90
2022/03/19 06:57:44;;;;;;;44.30;22.67;;;1.70;99.90;;;;;;4975005;28;20109;-89
2022/03/19 07:00:10;;;;;;;47.00;24.13;;;1.70;99.90;;;;;;4975485;28;20500;-89
2022/03/19 07:02:49;;;;;;;48.45;23.55;;;1.90;99.90;;;;;;4973409;28;20041;-88
2022/03/19 07:05:28;;;;;;;45.97;21.67;;;2.00;99.90;;;;;;4970204;28;20545;-90
2022/03/19 07:07:56;;;;;;;41.92;20.38;;;2.10;99.90;;;;;;4968085;28;20385;-91
2022/03/19 07:10:22;;;;;;;51.28;24.25;;;2.20;99.90;;;;;;4975116;28;20035;-90
2022/03/19 07:12:53;;;;;;;48.88;23.55;;;2.20;99.90;;;;;;4967643;28;20034;-88
2022/03/19 07:15:24;;;;;;;47.38;23.35;;;2.20;99.90;;;;;;4970662;28;20034;-89
2022/03/19 07:17:50;;;;;;;47.47;21.13;;;2.30;99.90;;;;;;4976162;28;20087;-90
2022/03/19 07:20:17;;;;;;;40.67;20.70;;;2.40;99.90;;;;;;4975849;28;20067;-88
2022/03/19 07:23:04;;;;;;;41.50;20.60;;;2.50;99.90;;;;;;4979868;28;20399;-88
2022/03/19 07:25:38;;;;;;;40.20;19.63;;;2.60;99.90;;;;;;4984517;28;20035;-88
2022/03/19 07:28:06;;;;;;;44.13;20.95;;;2.70;99.90;;;;;;4962170;28;20394;-91
2022/03/19 07:30:33;;;;;;;41.22;19.73;;;2.80;99.90;;;;;;4975763;28;20027;-89
2022/03/19 07:32:59;;;;;;;34.45;17.02;;;2.80;99.90;;;;;;4972665;28;20478;-90
2022/03/19 07:35:24;;;;;;;32.30;17.00;;;2.90;99.90;;;;;;4974375;28;20141;-89
2022/03/19 07:37:50;;;;;;;46.10;21.48;;;2.90;99.90;;;;;;4975181;28;20059;-89
2022/03/19 07:43:03;;;;;;;33.72;17.70;;;3.10;99.50;;;;;;4955772;29;20062;-90
2022/03/19 07:45:30;;;;;;;39.28;19.05;;;3.30;98.10;;;;;;4969065;28;20030;-88
2022/03/19 07:47:56;;;;;;;38.97;19.85;;;3.30;98.40;;;;;;4975478;28;20031;-91
2022/03/19 07:50:22;;;;;;;39.40;20.63;;;3.50;97.20;;;;;;4974993;28;20070;-89
2022/03/19 07:52:48;;;;;;;38.35;21.67;;;3.50;96.60;;;;;;4974151;28;20042;-88
2022/03/19 07:55:13;;;;;;;36.72;19.60;;;3.60;96.50;;;;;;4989455;28;20035;-89
2022/03/19 07:57:39;;;;;;;39.75;20.05;;;3.60;96.00;;;;;;4974662;28;20158;-90
2022/03/19 08:00:05;;;;;;;32.85;19.45;;;3.60;96.40;;;;;;4974670;28;20051;-88
2022/03/19 08:02:31;;;;;;;30.95;16.65;;;3.80;95.20;;;;;;4974648;28;20114;-87
2022/03/19 08:05:00;;;;;;;36.67;20.13;;;4.00;94.90;;;;;;4974083;28;20579;-90
2022/03/19 08:07:25;;;;;;;35.97;20.13;;;4.00;94.60;;;;;;4975334;28;20023;-87
2022/03/19 08:09:51;;;;;;;32.38;15.30;;;4.20;93.90;;;;;;4975478;28;20034;-88
2022/03/19 08:12:17;;;;;;;35.28;19.23;;;4.20;92.80;;;;;;4977630;28;20069;-89
2022/03/19 08:14:42;;;;;;;36.50;16.27;;;4.30;92.20;;;;;;4974291;28;20109;-89
2022/03/19 08:17:08;;;;;;;33.15;18.77;;;4.30;91.60;;;;;;4974550;28;20031;-88
2022/03/19 08:19:34;;;;;;;30.33;15.52;;;4.50;91.40;;;;;;4976484;28;20031;-89
2022/03/19 08:22:00;;;;;;;39.05;18.27;;;4.50;90.00;;;;;;4976200;28;20038;-89
2022/03/19 08:24:25;;;;;;;35.30;19.20;;;4.50;90.40;;;;;;4975581;28;20019;-90
2022/03/19 08:26:55;;;;;;;35.15;20.58;;;4.60;90.60;;;;;;4975910;28;20475;-90
2022/03/19 08:29:24;;;;;;;34.55;18.35;;;4.50;89.20;;;;;;4974880;28;20031;-89
2022/03/19 08:31:51;;;;;;;40.53;18.10;;;4.60;89.80;;;;;;4977264;28;20514;-88
2022/03/19 08:34:16;;;;;;;35.28;20.08;;;4.70;89.20;;;;;;4973163;28;20039;-89
2022/03/19 08:36:42;;;;;;;36.60;19.85;;;5.00;87.70;;;;;;4952897;28;20045;-89
2022/03/19 08:41:52;;;;;;;36.45;18.45;;;5.10;87.10;;;;;;4974823;28;20165;-90
2022/03/19 08:44:18;;;;;;;33.28;18.58;;;5.20;85.30;;;;;;4972294;28;20458;-89
2022/03/19 08:46:43;;;;;;;24.45;14.98;;;5.20;84.10;;;;;;4972685;28;20073;-89
2022/03/19 08:49:09;;;;;;;34.45;18.17;;;5.40;84.20;;;;;;4970161;28;20038;-89
2022/03/19 08:51:40;;;;;;;33.83;19.40;;;5.40;85.00;;;;;;4972522;28;20842;-90
2022/03/19 08:54:12;;;;;;;35.25;18.60;;;5.50;83.10;;;;;;4972100;28;20031;-89
2022/03/19 08:56:38;;;;;;;30.85;18.52;;;5.50;83.40;;;;;;4973408;28;20077;-88
2022/03/19 08:59:04;;;;;;;28.80;17.30;;;5.80;82.10;;;;;;4973335;28;20436;-89
2022/03/19 09:01:30;;;;;;;29.15;17.13;;;5.70;78.30;;;;;;4969960;28;20113;-87
2022/03/19 09:03:56;;;;;;;33.10;18.58;;;5.80;76.00;;;;;;4973610;28;20123;-87
2022/03/19 09:06:21;;;;;;;28.45;15.93;;;5.90;77.60;;;;;;4970867;28;20118;-88
2022/03/19 09:08:50;;;;;;;31.45;17.80;;;6.10;76.70;;;;;;4960463;28;20034;-88
2022/03/19 09:11:20;;;;;;;33.58;17.73;;;6.20;74.70;;;;;;4964540;28;20106;-87
2022/03/19 09:13:49;;;;;;;35.47;18.35;;;6.30;74.30;;;;;;4963105;28;20075;-88
2022/03/19 09:16:16;;;;;;;36.83;19.83;;;6.30;74.20;;;;;;4963041;28;20043;-88
2022/03/19 09:18:42;;;;;;;32.97;18.67;;;6.60;74.20;;;;;;4973618;28;20034;-87
2022/03/19 09:21:08;;;;;;;29.80;18.35;;;6.60;73.20;;;;;;4973040;28;20035;-87
2022/03/19 09:23:33;;;;;;;26.67;15.13;;;6.50;71.50;;;;;;4973652;28;20125;-88
2022/03/19 09:25:59;;;;;;;31.67;18.27;;;6.40;70.90;;;;;;4973813;28;20053;-88
2022/03/19 09:28:25;;;;;;;29.38;19.00;;;6.60;71.80;;;;;;4973501;28;20082;-88
2022/03/19 09:30:51;;;;;;;37.17;18.42;;;6.90;70.50;;;;;;4969855;28;20046;-87
2022/03/19 09:33:17;;;;;;;35.65;20.58;;;6.80;69.80;;;;;;4970556;28;20034;-89
2022/03/19 09:35:43;;;;;;;33.58;19.83;;;6.90;69.80;;;;;;4973786;28;20096;-88
2022/03/19 09:38:09;;;;;;;35.28;20.58;;;7.10;69.10;;;;;;4972423;28;20027;-89
2022/03/19 09:40:34;;;;;;;31.65;18.25;;;7.30;69.50;;;;;;4973473;28;20026;-88
2022/03/19 09:43:00;;;;;;;32.15;19.75;;;7.40;67.40;;;;;;4983448;28;20051;-87
2022/03/19 09:45:27;;;;;;;35.60;17.33;;;7.20;67.80;;;;;;4972839;28;20031;-88
2022/03/19 09:47:55;;;;;;;33.47;20.58;;;7.10;67.10;;;;;;4973150;28;20106;-88
2022/03/19 09:50:21;;;;;;;30.08;16.88;;;7.40;66.90;;;;;;4986159;28;20035;-89
2022/03/19 09:52:52;;;;;;;35.13;20.02;;;7.30;65.30;;;;;;4967328;28;20026;-89
2022/03/19 09:55:18;;;;;;;34.40;21.33;;;7.50;65.50;;;;;;4970827;28;20151;-87
2022/03/19 09:57:45;;;;;;;37.72;21.35;;;7.60;65.60;;;;;;4968903;28;20295;-87
2022/03/19 10:00:11;;;;;;;32.05;20.55;;;7.70;66.40;;;;;;4986952;28;20086;-89
2022/03/19 10:03:03;;;;;;;39.05;22.48;;;7.90;64.90;;;;;;5008525;28;20033;-89
2022/03/19 10:08:37;;;;;;;32.20;18.15;;;7.90;63.90;;;;;;4984634;28;20062;-88
2022/03/19 10:11:08;;;;;;;34.28;20.50;;;8.00;64.10;;;;;;4990765;28;20040;-89
2022/03/19 10:13:47;;;;;;;36.17;20.98;;;8.10;65.10;;;;;;4993461;28;20477;-87
2022/03/19 10:16:24;;;;;;;31.30;19.08;;;8.00;63.50;;;;;;4994910;28;20038;-89
2022/03/19 10:18:58;;;;;;;35.97;18.52;;;8.00;63.20;;;;;;4990301;28;20026;-89
2022/03/19 10:21:25;;;;;;;34.88;19.05;;;8.20;62.90;;;;;;4992996;28;20030;-88
2022/03/19 10:23:51;;;;;;;31.33;18.17;;;8.40;63.00;;;;;;4996542;28;20022;-87
2022/03/19 10:26:34;;;;;;;33.88;19.55;;;8.50;62.20;;;;;;4995578;28;20109;-88
2022/03/19 10:29:02;;;;;;;31.77;18.42;;;8.60;62.60;;;;;;4984369;28;20030;-87
2022/03/19 10:31:38;;;;;;;30.13;18.90;;;8.50;61.80;;;;;;4980791;28;20061;-88
2022/03/19 10:34:05;;;;;;;33.45;19.52;;;8.70;60.50;;;;;;4977496;28;20030;-88
2022/03/19 10:36:39;;;;;;;29.95;18.33;;;9.00;61.20;;;;;;4969875;28;20053;-87
2022/03/19 10:39:13;;;;;;;30.67;17.70;;;8.90;59.70;;;;;;4971415;28;20063;-86
2022/03/19 10:41:39;;;;;;;29.48;18.00;;;8.80;59.70;;;;;;4966260;28;20031;-87
2022/03/19 10:44:20;;;;;;;37.50;20.52;;;8.60;57.30;;;;;;4968926;28;20042;-80
2022/03/19 10:46:49;;;;;;;;;;;8.70;58.20;;;;;;4970695;28;20117;-87
2022/03/19 10:49:16;;;;;;;29.85;19.27;;;9.00;58.20;;;;;;4970132;28;19910;-85
2022/03/19 10:51:50;;;;;;;33.63;19.27;;;9.30;57.20;;;;;;4969278;28;20038;-86
2022/03/19 10:54:17;;;;;;;31.45;20.27;;;9.50;54.60;;;;;;4962935;28;20031;-86
2022/03/19 10:56:44;;;;;;;36.42;20.60;;;9.70;55.00;;;;;;4968661;28;20042;-86
2022/03/19 10:59:10;;;;;;;30.30;18.80;;;9.90;52.70;;;;;;4969565;28;20097;-86
2022/03/19 11:01:37;;;;;;;33.78;21.55;;;10.20;51.50;;;;;;4975826;28;20510;-86
2022/03/19 11:04:05;;;;;;;33.95;18.88;;;10.60;51.10;;;;;;4968293;28;20050;-85
2022/03/19 11:06:41;;;;;;;29.58;17.73;;;10.50;50.30;;;;;;4964790;28;20646;-85
2022/03/19 11:09:12;;;;;;;26.77;17.52;;;10.70;50.30;;;;;;4970653;28;20114;-85
2022/03/19 11:11:57;;;;;;;28.73;17.88;;;10.40;51.10;;;;;;4969646;28;20035;-84
2022/03/19 11:14:26;;;;;;;30.08;18.98;;;10.70;50.60;;;;;;4976734;28;20018;-86
2022/03/19 11:17:36;;;;;;;26.08;18.70;;;10.80;50.10;;;;;;4973803;28;20077;-86
2022/03/19 11:20:05;;;;;;;26.90;18.27;;;10.70;49.90;;;;;;4974258;28;20382;-84
2022/03/19 11:22:41;;;;;;;30.30;20.27;;;11.10;49.80;;;;;;4978072;28;20118;-87
2022/03/19 11:25:13;;;;;;;32.22;20.77;;;11.30;47.60;;;;;;4970481;28;20113;-85
2022/03/19 11:27:42;;;;;;;30.70;17.20;;;10.80;49.00;;;;;;4974827;28;20026;-85
2022/03/19 11:30:28;;;;;;;29.77;18.08;;;10.40;49.70;;;;;;4974711;28;20045;-87
2022/03/19 11:33:14;;;;;;;27.92;18.38;;;9.90;50.90;;;;;;4960987;28;20027;-88
2022/03/19 11:35:48;;;;;;;30.70;17.55;;;9.80;51.90;;;;;;4972557;28;20077;-87
2022/03/19 11:38:17;;;;;;;31.50;20.02;;;9.50;51.10;;;;;;4974725;28;20087;-86
2022/03/19 11:40:47;;;;;;;31.23;18.42;;;9.50;52.00;;;;;;4973939;28;20034;-88
2022/03/19 11:43:18;;;;;;;28.75;19.67;;;9.70;51.50;;;;;;4989370;28;20058;-86
2022/03/19 11:46:03;;;;;;;32.53;19.73;;;10.30;50.50;;;;;;4962535;28;20045;-86
2022/03/19 11:48:39;;;;;;;27.88;17.45;;;11.30;48.70;;;;;;4966232;28;20031;-84
2022/03/19 11:51:31;;;;;;;29.90;19.38;;;11.40;46.40;;;;;;4974202;28;20475;-85
2022/03/19 11:54:02;;;;;;;26.45;18.00;;;11.10;46.30;;;;;;4970083;28;20050;-86
2022/03/19 11:56:43;;;;;;;30.55;17.80;;;11.50;45.90;;;;;;4975917;28;20034;-82
2022/03/19 11:59:24;;;;;;;29.17;17.88;;;11.70;43.50;;;;;;4971851;28;20541;-83
2022/03/19 12:01:55;;;;;;;28.38;20.23;;;12.00;43.60;;;;;;4972464;28;20129;-85
2022/03/19 12:04:21;;;;;;;31.10;20.20;;;11.80;43.90;;;;;;4973844;28;20046;-82
2022/03/19 12:07:00;;;;;;;32.25;20.02;;;11.90;43.20;;;;;;4971488;28;20494;-82
2022/03/19 12:09:40;;;;;;;29.45;19.90;;;12.10;42.50;;;;;;4974707;28;20046;-83
2022/03/19 12:12:26;;;;;;;34.00;18.60;;;12.20;41.90;;;;;;4973128;28;20497;-83
2022/03/19 12:14:54;;;;;;;31.05;18.88;;;12.60;40.60;;;;;;4965291;28;20038;-82
2022/03/19 12:17:21;;;;;;;26.50;18.85;;;12.60;40.40;;;;;;4972197;28;20081;-82
2022/03/19 12:19:55;;;;;;;31.25;20.65;;;12.20;41.10;;;;;;4970354;28;20033;-83
2022/03/19 12:22:41;;;;;;;29.95;19.60;;;12.50;41.30;;;;;;4969208;28;20077;-84
2022/03/19 12:25:18;;;;;;;29.90;21.55;;;12.60;40.20;;;;;;4968491;28;20372;-82
2022/03/19 12:27:55;;;;;;;28.85;20.42;;;13.00;39.30;;;;;;4970657;28;20027;-82
2022/03/19 12:30:22;;;;;;;32.17;18.90;;;14.00;38.90;;;;;;4967559;28;20470;-82
2022/03/19 12:32:55;;;;;;;29.98;19.73;;;14.10;37.20;;;;;;4972417;28;20117;-82
2022/03/19 12:35:26;;;;;;;30.77;19.90;;;13.70;37.40;;;;;;4965679;28;20029;-82
2022/03/19 12:37:53;;;;;;;30.60;20.42;;;14.10;36.10;;;;;;4971969;28;20241;-82
2022/03/19 12:40:25;;;;;;;29.98;19.08;;;13.90;35.80;;;;;;4972237;28;20031;-82
2022/03/19 12:42:57;;;;;;;25.90;19.80;;;13.80;34.30;;;;;;4974431;28;20043;-82
2022/03/19 12:45:55;;;;;;;30.55;19.85;;;13.80;34.60;;;;;;4971875;28;20031;-82
2022/03/19 12:48:21;;;;;;;24.63;16.08;;;14.20;34.20;;;;;;4970158;28;20039;-82
2022/03/19 12:50:48;;;;;;;26.63;16.50;;;14.60;32.50;;;;;;4972250;28;20054;-82
2022/03/19 12:53:13;;;;;;;28.38;17.77;;;14.30;32.40;;;;;;4979295;28;20031;-82
2022/03/19 12:55:40;;;;;;;21.42;15.93;;;14.60;32.80;;;;;;4969776;28;20035;-82
2022/03/19 12:58:05;;;;;;;23.88;17.50;;;14.20;32.60;;;;;;4987111;28;20074;-84
2022/03/19 13:00:31;;;;;;;23.52;17.63;;;14.30;32.10;;;;;;4971389;28;20055;-83